Kezdőlap
METAR-TAF:

METAR-TAF

Repülőterek :

Marshall, Missouri, Amerikai Egyesült Államok

földrajzi szélesség: 39-05-44N, földrajzi hosszúság: 093-12-10W, magasság: 237 m

Jelenlegi meteorológiai megfigyelések

A jelentés 12 perccel ezelõtt készült, 17:15 UTC
Keleti szél 5 kt
Hőmérséklet 28°C
Páratartalom 74%
Légköri nyomás 1017 hPa
Látótávolság: 16.1 km
Szórványos felhőzet 2400 lábon

METAR: KMHL 131715Z AUTO 10005KT 10SM SCT024 28/23 A3004 RMK AO2

Idő: 12:27 (17:27 UTC)


TAF: hiányzik

Meteorológiai megfigyelések és előrejelzések több, mint 4000 repülőtéren (METAR és TAF jelentéseket).

A térképen piros és sárga pontok jelzik az elérhető meteorológiai állomásokat.

Mozgassa az egeret a pont fölött, hogy megjelenjen az állomás neve.

Azután kattintson az időjárási megfigyelések és előrejelzések megtekintéséhez.

A térkép megváltoztatása: kattintson a fekete keresztel jelölt zöld gombra ráközelítéshez, a vonallal jelölt zöld gombra távolításhoz, vagy a zöld nyilakra a szomszédos térképek eléréséhez.


METAR-TAF: